createdAt,value
2019-02-14T00:00:55.357Z,2.28
2019-02-14T00:03:21.582Z,2.24
2019-02-14T00:05:47.809Z,2.22
2019-02-14T00:08:14.166Z,2.15
2019-02-14T00:10:41.452Z,2.15
2019-02-14T00:13:07.611Z,2.15
2019-02-14T00:15:33.848Z,2.16
2019-02-14T00:18:00.090Z,2.16
2019-02-14T00:20:26.307Z,2.15
2019-02-14T00:22:52.502Z,2.14
2019-02-14T00:25:19.199Z,2.14
2019-02-14T00:27:45.397Z,2.14
2019-02-14T00:30:11.503Z,2.17
2019-02-14T00:32:37.671Z,2.19
2019-02-14T00:35:04.711Z,2.16
2019-02-14T00:37:31.205Z,2.17
2019-02-14T00:39:57.447Z,2.14
2019-02-14T00:42:25.867Z,2.11
2019-02-14T00:44:52.084Z,2.09
2019-02-14T00:47:19.137Z,2.06
2019-02-14T00:49:45.319Z,2.05
2019-02-14T00:52:12.101Z,2.04
2019-02-14T00:54:38.300Z,1.98
2019-02-14T00:57:04.392Z,1.89
2019-02-14T00:59:31.107Z,1.81
2019-02-14T01:01:57.253Z,1.78
2019-02-14T01:04:24.090Z,1.77
2019-02-14T01:06:50.248Z,1.78
2019-02-14T01:09:18.026Z,1.79
2019-02-14T01:11:44.180Z,1.82
2019-02-14T01:14:12.458Z,1.83
2019-02-14T01:16:38.584Z,1.86
2019-02-14T01:19:08.715Z,1.85
2019-02-14T01:21:34.847Z,1.85
2019-02-14T01:24:00.983Z,1.85
2019-02-14T01:26:27.134Z,1.83
2019-02-14T01:28:53.319Z,1.82
2019-02-14T01:31:22.288Z,1.84
2019-02-14T01:33:48.404Z,1.81
2019-02-14T01:36:14.522Z,1.78
2019-02-14T01:38:40.704Z,1.78
2019-02-14T01:41:06.778Z,1.78
2019-02-14T01:43:33.290Z,1.80
2019-02-14T01:45:59.415Z,1.82
2019-02-14T01:48:26.665Z,1.80
2019-02-14T01:50:52.810Z,1.82
2019-02-14T01:53:20.917Z,1.86
2019-02-14T01:55:47.043Z,1.84
2019-02-14T01:58:13.162Z,1.83
2019-02-14T02:00:39.298Z,1.83
2019-02-14T02:03:05.429Z,1.82
2019-02-14T02:05:31.627Z,1.81
2019-02-14T02:07:57.755Z,1.83
2019-02-14T02:10:23.885Z,1.78
2019-02-14T02:12:50.296Z,1.77
2019-02-14T02:15:16.393Z,1.74
2019-02-14T02:17:43.255Z,1.68
2019-02-14T02:20:10.337Z,1.62
2019-02-14T02:22:36.535Z,1.56
2019-02-14T02:25:04.935Z,1.53
2019-02-14T02:27:34.057Z,1.50
2019-02-14T02:30:00.419Z,1.50
2019-02-14T02:32:33.740Z,1.50
2019-02-14T02:34:59.829Z,1.47
2019-02-14T02:37:29.218Z,1.47
2019-02-14T02:39:55.316Z,1.49
2019-02-14T02:42:21.629Z,1.50
2019-02-14T02:44:47.724Z,1.52
2019-02-14T02:47:14.156Z,1.54
2019-02-14T02:49:41.388Z,1.52
2019-02-14T02:52:07.601Z,1.51
2019-02-14T02:54:33.746Z,1.50
2019-02-14T02:56:59.881Z,1.54
2019-02-14T02:59:26.046Z,1.51
2019-02-14T03:01:52.213Z,1.49
2019-02-14T03:04:19.323Z,1.50
2019-02-14T03:06:45.468Z,1.50
2019-02-14T03:09:14.607Z,1.49
2019-02-14T03:11:42.395Z,1.50
2019-02-14T03:14:08.614Z,1.51
2019-02-14T03:16:34.861Z,1.52
2019-02-14T03:19:01.144Z,1.50
2019-02-14T03:21:27.375Z,1.52
2019-02-14T03:23:54.196Z,1.54
2019-02-14T03:26:20.424Z,1.54
2019-02-14T03:28:46.612Z,1.55
2019-02-14T03:31:12.760Z,1.57
2019-02-14T03:33:38.948Z,1.58
2019-02-14T03:36:06.103Z,1.58
2019-02-14T03:38:32.328Z,1.60
2019-02-14T03:41:00.476Z,1.62
2019-02-14T03:43:26.553Z,1.57
2019-02-14T03:45:53.093Z,1.54
2019-02-14T03:48:19.320Z,1.56
2019-02-14T03:50:45.557Z,1.56
2019-02-14T03:53:11.749Z,1.57
2019-02-14T03:55:37.962Z,1.56
2019-02-14T03:58:04.382Z,1.53
2019-02-14T04:00:31.347Z,1.53
2019-02-14T04:02:57.541Z,1.55
2019-02-14T04:05:23.645Z,1.55
2019-02-14T04:07:49.850Z,1.54
2019-02-14T04:10:16.820Z,1.52
2019-02-14T04:12:43.145Z,1.50
2019-02-14T04:15:11.815Z,1.50
2019-02-14T04:17:38.105Z,1.52
2019-02-14T04:20:06.979Z,1.53
2019-02-14T04:22:33.416Z,1.52
2019-02-14T04:25:00.837Z,1.58
2019-02-14T04:27:27.106Z,1.59
2019-02-14T04:29:53.821Z,1.59
2019-02-14T04:32:20.971Z,1.58
2019-02-14T04:34:49.962Z,1.59
2019-02-14T04:37:16.220Z,1.59
2019-02-14T04:39:42.506Z,1.60
2019-02-14T04:42:12.026Z,1.67
2019-02-14T04:44:38.119Z,1.71
2019-02-14T04:47:04.382Z,1.70
2019-02-14T04:49:30.489Z,1.72
2019-02-14T04:51:58.136Z,1.77
2019-02-14T04:54:24.260Z,1.78
2019-02-14T04:56:50.549Z,1.79
2019-02-14T04:59:16.653Z,1.78
2019-02-14T05:01:44.234Z,1.78
2019-02-14T05:04:10.364Z,1.78
2019-02-14T05:06:44.071Z,1.78
2019-02-14T05:09:07.996Z,1.81
2019-02-14T05:11:36.497Z,1.78
2019-02-14T05:14:02.681Z,1.81
2019-02-14T05:16:28.932Z,1.82
2019-02-14T05:18:55.347Z,1.82
2019-02-14T05:21:21.534Z,1.81
2019-02-14T05:23:47.732Z,1.82
2019-02-14T05:26:13.919Z,1.80
2019-02-14T05:28:40.829Z,1.81
2019-02-14T05:31:07.016Z,1.79
2019-02-14T05:33:33.175Z,1.78
2019-02-14T05:35:59.473Z,1.81
2019-02-14T05:38:25.645Z,1.82
2019-02-14T05:40:52.040Z,1.82
2019-02-14T05:43:18.216Z,1.82
2019-02-14T05:45:44.443Z,1.79
2019-02-14T05:48:10.610Z,1.79
2019-02-14T05:50:36.721Z,1.78
2019-02-14T05:53:03.629Z,1.78
2019-02-14T05:55:29.866Z,1.77
2019-02-14T05:57:57.945Z,1.76
2019-02-14T06:00:24.197Z,1.78
2019-02-14T06:02:50.427Z,1.79
2019-02-14T06:05:16.567Z,1.83
2019-02-14T06:07:44.395Z,1.85
2019-02-14T06:10:10.729Z,1.83
2019-02-14T06:12:37.243Z,1.80
2019-02-14T06:15:11.527Z,1.81
2019-02-14T06:17:37.810Z,1.75
2019-02-14T06:20:13.566Z,1.71
2019-02-14T06:22:40.265Z,1.70
2019-02-14T06:25:09.313Z,1.65
2019-02-14T06:27:35.588Z,1.59
2019-02-14T06:30:01.949Z,1.55
2019-02-14T06:32:28.183Z,1.56
2019-02-14T06:34:54.429Z,1.61
2019-02-14T06:37:20.653Z,1.66
2019-02-14T06:39:46.987Z,1.67
2019-02-14T06:42:13.122Z,1.67
2019-02-14T06:44:39.499Z,1.71
2019-02-14T06:47:05.599Z,1.70
2019-02-14T06:49:32.908Z,1.66
2019-02-14T06:52:00.253Z,1.63
2019-02-14T06:54:26.475Z,1.59
2019-02-14T06:56:52.696Z,1.60
2019-02-14T06:59:18.790Z,1.67
2019-02-14T07:01:45.011Z,1.70
2019-02-14T07:04:11.174Z,1.73
2019-02-14T07:06:37.484Z,1.75
2019-02-14T07:09:04.311Z,1.74
2019-02-14T07:11:32.977Z,1.73
2019-02-14T07:13:59.078Z,1.79
2019-02-14T07:16:25.282Z,1.89
2019-02-14T07:18:52.581Z,1.93
2019-02-14T07:21:18.805Z,1.95
2019-02-14T07:23:44.919Z,1.99
2019-02-14T07:26:11.134Z,2.07
2019-02-14T07:28:37.322Z,2.11
2019-02-14T07:31:04.266Z,2.16
2019-02-14T07:33:30.512Z,2.19
2019-02-14T07:35:56.714Z,2.23
2019-02-14T07:38:22.824Z,2.26
2019-02-14T07:40:50.121Z,2.27
2019-02-14T07:43:16.222Z,2.30
2019-02-14T07:45:42.482Z,2.35
2019-02-14T07:48:09.583Z,2.37
2019-02-14T07:50:35.783Z,2.38
2019-02-14T07:53:03.564Z,2.42
2019-02-14T07:55:29.790Z,2.47
2019-02-14T07:57:56.010Z,2.55
2019-02-14T08:00:22.110Z,2.63
2019-02-14T08:02:48.299Z,2.70
2019-02-14T08:05:14.471Z,2.78
2019-02-14T08:07:40.697Z,2.84
2019-02-14T08:10:16.141Z,2.88
2019-02-14T08:12:42.364Z,2.98
2019-02-14T08:15:10.520Z,3.06
2019-02-14T08:17:36.884Z,3.05
2019-02-14T08:20:06.341Z,3.11
2019-02-14T08:22:32.517Z,3.21
2019-02-14T08:24:58.740Z,3.27
2019-02-14T08:27:24.842Z,3.33
2019-02-14T08:29:51.767Z,3.38
2019-02-14T08:32:18.404Z,3.38
2019-02-14T08:34:44.621Z,3.43
2019-02-14T08:37:11.466Z,3.53
2019-02-14T08:39:37.665Z,3.60
2019-02-14T08:42:03.907Z,3.66
2019-02-14T08:44:30.612Z,3.74
2019-02-14T08:46:57.863Z,3.86
2019-02-14T08:49:24.056Z,3.98
2019-02-14T08:51:50.313Z,4.09
2019-02-14T08:54:16.589Z,4.33
2019-02-14T08:56:42.812Z,4.54
2019-02-14T08:59:09.017Z,4.70
2019-02-14T09:01:35.541Z,4.79
2019-02-14T09:04:02.907Z,4.88
2019-02-14T09:06:30.112Z,4.99
2019-02-14T09:08:56.232Z,5.09
2019-02-14T09:11:22.431Z,5.17
2019-02-14T09:13:48.581Z,5.25
2019-02-14T09:16:14.810Z,5.35
2019-02-14T09:18:40.915Z,5.46
2019-02-14T09:21:07.078Z,5.61
2019-02-14T09:23:33.248Z,5.81
2019-02-14T09:25:59.447Z,5.93
2019-02-14T09:28:25.679Z,6.10
2019-02-14T09:30:51.833Z,6.32
2019-02-14T09:33:18.083Z,6.48
2019-02-14T09:35:45.457Z,6.51
2019-02-14T09:38:11.602Z,6.60
2019-02-14T09:40:40.319Z,6.68
2019-02-14T09:43:07.589Z,6.82
2019-02-14T09:45:33.792Z,6.83
2019-02-14T09:48:00.715Z,7.02
2019-02-14T09:50:26.943Z,7.05
2019-02-14T09:52:53.021Z,7.31
2019-02-14T09:55:19.596Z,7.46
2019-02-14T09:57:45.783Z,7.68
2019-02-14T10:00:16.185Z,8.01
2019-02-14T10:02:42.411Z,8.43
2019-02-14T10:05:09.022Z,8.78
2019-02-14T10:07:35.221Z,9.06
2019-02-14T10:10:01.351Z,9.32
2019-02-14T10:12:31.167Z,9.49
2019-02-14T10:14:57.341Z,9.72
2019-02-14T10:17:23.571Z,9.97
2019-02-14T10:19:49.735Z,10.24
2019-02-14T10:22:15.947Z,10.36
2019-02-14T10:24:42.191Z,10.62
2019-02-14T10:27:08.382Z,10.93
2019-02-14T10:29:35.480Z,11.03
2019-02-14T10:32:01.668Z,11.23
2019-02-14T10:34:27.778Z,11.35
2019-02-14T10:36:54.480Z,11.65
2019-02-14T10:39:20.619Z,11.94
2019-02-14T10:41:47.564Z,12.30
2019-02-14T10:44:13.668Z,12.69
2019-02-14T10:46:39.906Z,12.86
2019-02-14T10:49:05.988Z,12.93
2019-02-14T10:51:32.165Z,13.25
2019-02-14T10:53:59.337Z,13.38
2019-02-14T10:56:25.542Z,13.78
2019-02-14T10:58:51.660Z,14.27
2019-02-14T11:01:19.112Z,14.75
2019-02-14T11:03:45.592Z,15.19
2019-02-14T11:06:11.880Z,15.67
2019-02-14T11:08:41.247Z,16.18
2019-02-14T11:11:07.814Z,16.54
2019-02-14T11:13:34.671Z,16.21
2019-02-14T11:16:01.069Z,16.34
2019-02-14T11:18:27.341Z,16.68
2019-02-14T11:20:53.597Z,17.12
2019-02-14T11:23:34.887Z,17.55
2019-02-14T11:26:01.401Z,17.95
2019-02-14T11:28:27.773Z,18.61
2019-02-14T11:30:54.377Z,18.97
2019-02-14T11:33:20.753Z,19.21
2019-02-14T11:36:09.942Z,19.42
2019-02-14T11:38:40.376Z,19.59
2019-02-14T11:41:07.107Z,19.85
2019-02-14T11:43:53.051Z,20.27
2019-02-14T11:46:16.559Z,20.58
2019-02-14T11:48:43.020Z,21.13
2019-02-14T11:51:09.177Z,21.21
2019-02-14T11:53:35.433Z,21.45
2019-02-14T11:56:01.943Z,21.82
2019-02-14T11:58:28.319Z,21.90
2019-02-14T12:00:54.579Z,21.82
2019-02-14T12:03:20.886Z,21.95
2019-02-14T12:05:47.075Z,22.40
2019-02-14T12:08:13.351Z,22.57
2019-02-14T12:10:39.506Z,22.91
2019-02-14T12:13:05.778Z,23.14
2019-02-14T12:15:32.163Z,23.21
2019-02-14T12:18:00.550Z,23.26
2019-02-14T12:20:26.824Z,23.33
2019-02-14T12:22:55.204Z,23.61
2019-02-14T12:25:28.072Z,23.97
2019-02-14T12:27:54.436Z,24.20
2019-02-14T12:30:20.572Z,24.19
2019-02-14T12:32:46.868Z,24.46
2019-02-14T12:35:13.003Z,24.78
2019-02-14T12:37:39.340Z,25.14
2019-02-14T12:40:09.015Z,25.45
2019-02-14T12:42:35.368Z,25.63
2019-02-14T12:45:01.694Z,25.84
2019-02-14T12:47:28.246Z,26.08
2019-02-14T12:49:54.519Z,26.22
2019-02-14T12:52:20.923Z,26.21
2019-02-14T12:54:47.084Z,26.62
2019-02-14T12:57:13.327Z,26.92
2019-02-14T12:59:39.523Z,27.06
2019-02-14T13:02:12.405Z,27.39
2019-02-14T13:04:41.400Z,27.38
2019-02-14T13:07:07.631Z,27.05
2019-02-14T13:09:33.891Z,26.83
2019-02-14T13:12:00.263Z,26.80
2019-02-14T13:14:26.540Z,26.64
2019-02-14T13:16:52.819Z,26.19
2019-02-14T13:19:22.373Z,26.39
2019-02-14T13:21:51.291Z,26.54
2019-02-14T13:24:19.676Z,26.52
2019-02-14T13:26:46.196Z,26.44
2019-02-14T13:29:12.349Z,26.71
2019-02-14T13:31:38.776Z,27.02
2019-02-14T13:34:05.052Z,27.31
2019-02-14T13:36:31.453Z,27.53
2019-02-14T13:38:57.760Z,27.47
2019-02-14T13:41:30.983Z,27.04
2019-02-14T13:43:52.234Z,26.38
2019-02-14T13:46:18.576Z,26.22
2019-02-14T13:48:45.973Z,25.42
2019-02-14T13:51:12.189Z,24.64
2019-02-14T13:53:38.507Z,24.08
2019-02-14T13:56:04.692Z,23.81
2019-02-14T13:58:30.785Z,23.18
2019-02-14T14:00:56.971Z,22.56
2019-02-14T14:03:23.131Z,22.44
2019-02-14T14:05:49.382Z,22.32
2019-02-14T14:08:15.606Z,21.97
2019-02-14T14:10:41.778Z,21.17
2019-02-14T14:13:07.906Z,20.66
2019-02-14T14:15:34.675Z,20.11
2019-02-14T14:18:00.788Z,19.52
2019-02-14T14:20:27.286Z,19.29
2019-02-14T14:22:53.380Z,19.07
2019-02-14T14:25:19.593Z,18.37
2019-02-14T14:27:46.088Z,17.60
2019-02-14T14:30:12.920Z,17.04
2019-02-14T14:32:39.642Z,16.62
2019-02-14T14:35:10.979Z,16.41
2019-02-14T14:37:39.092Z,16.78
2019-02-14T14:40:11.570Z,16.73
2019-02-14T14:42:51.732Z,15.87
2019-02-14T14:45:31.712Z,15.29
2019-02-14T14:47:57.976Z,14.88
2019-02-14T14:50:26.306Z,14.83
2019-02-14T14:52:52.901Z,14.93
2019-02-14T14:55:19.133Z,15.15
2019-02-14T14:57:45.262Z,14.85
2019-02-14T15:00:12.055Z,14.42
2019-02-14T15:02:38.203Z,14.07
2019-02-14T15:05:05.469Z,13.69
2019-02-14T15:07:31.736Z,13.43
2019-02-14T15:09:58.027Z,13.18
2019-02-14T15:12:24.231Z,12.97
2019-02-14T15:14:50.377Z,12.83
2019-02-14T15:17:16.624Z,12.68
2019-02-14T15:19:42.766Z,12.56
2019-02-14T15:22:09.157Z,12.47
2019-02-14T15:24:35.308Z,12.49
2019-02-14T15:27:01.666Z,12.43
2019-02-14T15:29:27.845Z,12.18
2019-02-14T15:31:54.026Z,11.95
2019-02-14T15:34:20.359Z,11.75
2019-02-14T15:36:47.299Z,11.60
2019-02-14T15:39:14.782Z,11.44
2019-02-14T15:41:41.066Z,11.29
2019-02-14T15:44:07.313Z,11.15
2019-02-14T15:46:33.386Z,11.00
2019-02-14T15:49:00.526Z,10.87
2019-02-14T15:51:27.401Z,10.75
2019-02-14T15:53:54.469Z,10.62
2019-02-14T15:56:20.703Z,10.49
2019-02-14T15:58:47.213Z,10.33
2019-02-14T16:01:16.480Z,10.02
2019-02-14T16:03:43.060Z,9.77
2019-02-14T16:06:09.366Z,9.53
2019-02-14T16:08:35.844Z,9.25
2019-02-14T16:11:02.371Z,9.03
2019-02-14T16:13:31.693Z,8.82
2019-02-14T16:15:58.774Z,8.60
2019-02-14T16:18:25.380Z,8.28
2019-02-14T16:20:52.202Z,7.98
2019-02-14T16:23:18.366Z,7.69
2019-02-14T16:25:44.632Z,7.46
2019-02-14T16:28:11.560Z,7.25
2019-02-14T16:30:39.103Z,7.00
2019-02-14T16:33:05.323Z,6.82
2019-02-14T16:35:31.604Z,6.69
2019-02-14T16:37:57.887Z,6.57
2019-02-14T16:40:27.925Z,6.56
2019-02-14T16:42:53.493Z,6.55
2019-02-14T16:45:19.798Z,6.53
2019-02-14T16:47:46.390Z,6.47
2019-02-14T16:50:13.970Z,6.34
2019-02-14T16:52:40.524Z,6.21
2019-02-14T16:55:06.693Z,6.10
2019-02-14T16:57:33.954Z,5.99
2019-02-14T17:00:01.175Z,5.92
2019-02-14T17:02:27.822Z,5.93
2019-02-14T17:04:53.929Z,5.87
2019-02-14T17:07:20.146Z,5.79
2019-02-14T17:09:46.717Z,5.75
2019-02-14T17:12:12.941Z,5.68
2019-02-14T17:14:39.286Z,5.65
2019-02-14T17:17:05.540Z,5.54
2019-02-14T17:19:31.656Z,5.44
2019-02-14T17:21:58.182Z,5.34
2019-02-14T17:24:24.457Z,5.29
2019-02-14T17:26:52.979Z,5.23
2019-02-14T17:29:19.301Z,5.20
2019-02-14T17:31:46.431Z,5.23
2019-02-14T17:34:12.900Z,5.23
2019-02-14T17:36:42.078Z,5.23
2019-02-14T17:39:08.558Z,5.23
2019-02-14T17:41:34.958Z,5.16
2019-02-14T17:44:01.108Z,5.09
2019-02-14T17:46:27.434Z,5.00
2019-02-14T17:48:53.684Z,4.97
2019-02-14T17:51:19.893Z,4.88
2019-02-14T17:53:46.096Z,4.87
2019-02-14T17:56:14.261Z,4.90
2019-02-14T17:58:50.981Z,4.90
2019-02-14T18:01:10.250Z,4.94
2019-02-14T18:03:36.535Z,4.99
2019-02-14T18:06:02.962Z,4.96
2019-02-14T18:08:29.202Z,4.95
2019-02-14T18:10:56.354Z,4.98
2019-02-14T18:13:22.931Z,4.97
2019-02-14T18:15:49.839Z,4.98
2019-02-14T18:18:16.014Z,4.93
2019-02-14T18:20:43.206Z,4.94
2019-02-14T18:23:09.536Z,4.94
2019-02-14T18:25:35.726Z,4.92
2019-02-14T18:28:01.946Z,4.83
2019-02-14T18:30:28.355Z,4.81
2019-02-14T18:32:54.790Z,4.72
2019-02-14T18:35:21.039Z,4.72
2019-02-14T18:37:47.584Z,4.68
2019-02-14T18:40:13.842Z,4.66
2019-02-14T18:42:42.729Z,4.60
2019-02-14T18:45:10.985Z,4.55
2019-02-14T18:47:39.730Z,4.51
2019-02-14T18:50:08.153Z,4.42
2019-02-14T18:52:34.403Z,4.37
2019-02-14T18:55:00.725Z,4.29
2019-02-14T18:57:26.997Z,4.23
2019-02-14T18:59:53.101Z,4.18
2019-02-14T19:02:19.333Z,4.18
2019-02-14T19:04:45.455Z,4.17
2019-02-14T19:07:12.274Z,4.16
2019-02-14T19:09:38.578Z,4.17
2019-02-14T19:12:06.713Z,4.15
2019-02-14T19:14:32.886Z,4.09
2019-02-14T19:16:59.547Z,4.09
2019-02-14T19:19:25.867Z,4.06
2019-02-14T19:21:52.051Z,4.01
2019-02-14T19:24:18.764Z,3.97
2019-02-14T19:26:44.968Z,3.94
2019-02-14T19:29:11.160Z,3.92
2019-02-14T19:31:37.287Z,3.91
2019-02-14T19:34:03.525Z,3.87
2019-02-14T19:36:29.613Z,3.85
2019-02-14T19:38:55.850Z,3.82
2019-02-14T19:41:25.325Z,3.78
2019-02-14T19:43:50.246Z,3.74
2019-02-14T19:46:16.724Z,3.72
2019-02-14T19:48:43.061Z,3.70
2019-02-14T19:51:09.328Z,3.66
2019-02-14T19:53:35.610Z,3.62
2019-02-14T19:56:01.868Z,3.58
2019-02-14T19:58:28.383Z,3.56
2019-02-14T20:00:54.488Z,3.54
2019-02-14T20:03:20.863Z,3.56
2019-02-14T20:05:46.984Z,3.54
2019-02-14T20:08:13.267Z,3.53
2019-02-14T20:10:39.418Z,3.53
2019-02-14T20:13:05.611Z,3.53
2019-02-14T20:15:37.072Z,3.55
2019-02-14T20:18:00.357Z,3.55
2019-02-14T20:20:26.658Z,3.54
2019-02-14T20:22:52.930Z,3.55
2019-02-14T20:25:22.868Z,3.55
2019-02-14T20:27:50.059Z,3.57
2019-02-14T20:30:17.066Z,3.56
2019-02-14T20:32:43.175Z,3.53
2019-02-14T20:35:09.387Z,3.46
2019-02-14T20:37:35.541Z,3.38
2019-02-14T20:40:05.500Z,3.37
2019-02-14T20:42:31.812Z,3.41
2019-02-14T20:44:58.071Z,3.42
2019-02-14T20:47:24.315Z,3.42
2019-02-14T20:49:50.521Z,3.42
2019-02-14T20:52:20.260Z,3.37
2019-02-14T20:54:47.010Z,3.37
2019-02-14T20:57:13.154Z,3.34
2019-02-14T20:59:39.410Z,3.33
2019-02-14T21:02:05.690Z,3.34
2019-02-14T21:04:31.891Z,3.34
2019-02-14T21:06:58.201Z,3.34
2019-02-14T21:09:24.404Z,3.36
2019-02-14T21:11:54.649Z,3.38
2019-02-14T21:14:19.058Z,3.38
2019-02-14T21:16:45.208Z,3.38
2019-02-14T21:19:11.443Z,3.41
2019-02-14T21:21:37.763Z,3.36
2019-02-14T21:24:03.880Z,3.36
2019-02-14T21:26:30.089Z,3.32
2019-02-14T21:28:56.185Z,3.26
2019-02-14T21:31:22.431Z,3.19
2019-02-14T21:33:48.575Z,3.15
2019-02-14T21:36:15.054Z,3.10
2019-02-14T21:38:41.282Z,3.05
2019-02-14T21:41:07.473Z,2.98
2019-02-14T21:43:33.621Z,2.91
2019-02-14T21:45:59.929Z,2.91
2019-02-14T21:48:26.036Z,2.89
2019-02-14T21:50:52.267Z,2.88
2019-02-14T21:53:18.607Z,2.90
2019-02-14T21:55:44.817Z,2.91
2019-02-14T21:58:10.934Z,2.88
2019-02-14T22:00:37.152Z,2.87
2019-02-14T22:03:03.285Z,2.83
2019-02-14T22:05:29.466Z,2.77
2019-02-14T22:07:55.630Z,2.68
2019-02-14T22:10:21.841Z,2.67
2019-02-14T22:12:48.106Z,2.68
2019-02-14T22:15:17.495Z,2.69
2019-02-14T22:17:43.715Z,2.67
2019-02-14T22:20:09.853Z,2.65
2019-02-14T22:22:36.051Z,2.68
2019-02-14T22:25:02.748Z,2.69
2019-02-14T22:27:28.946Z,2.71
2019-02-14T22:29:55.092Z,2.71
2019-02-14T22:32:21.313Z,2.68
2019-02-14T22:34:47.461Z,2.68
2019-02-14T22:37:13.704Z,2.66
2019-02-14T22:39:39.803Z,2.55
2019-02-14T22:42:06.000Z,2.57
2019-02-14T22:44:32.141Z,2.64
2019-02-14T22:46:58.315Z,2.64
2019-02-14T22:49:24.465Z,2.57
2019-02-14T22:51:50.597Z,2.50
2019-02-14T22:54:16.763Z,2.54
2019-02-14T22:56:42.903Z,2.60
2019-02-14T22:59:09.045Z,2.56
2019-02-14T23:01:35.197Z,2.55
2019-02-14T23:04:01.346Z,2.56
2019-02-14T23:06:28.604Z,2.56
2019-02-14T23:08:54.836Z,2.52
2019-02-14T23:11:21.027Z,2.50
2019-02-14T23:13:47.243Z,2.49
2019-02-14T23:16:13.508Z,2.48
2019-02-14T23:18:40.848Z,2.50
2019-02-14T23:21:07.089Z,2.48
2019-02-14T23:23:33.675Z,2.53
2019-02-14T23:25:59.937Z,2.53
2019-02-14T23:28:26.629Z,2.52
2019-02-14T23:30:53.262Z,2.50
2019-02-14T23:33:19.522Z,2.45
2019-02-14T23:35:46.577Z,2.41
2019-02-14T23:38:13.021Z,2.45
2019-02-14T23:40:39.822Z,2.45
2019-02-14T23:43:07.299Z,2.45
2019-02-14T23:45:33.676Z,2.48
2019-02-14T23:47:59.994Z,2.49
2019-02-14T23:50:26.208Z,2.55
2019-02-14T23:52:52.311Z,2.63
2019-02-14T23:55:18.534Z,2.67
2019-02-14T23:57:44.955Z,2.70
